Time;durP1;ratioP1;P1;durP2;ratioP2;P2;SDS_P1;SDS_P2;PMS_P1;PMS_P2;Temp;Humidity;BMP_temperature;BMP_pressure;BME280_temperature;BME280_humidity;BME280_pressure;Samples;Min_cycle;Max_cycle;Signal;HPM_P1;HPM_P2
2022/03/27 00:01:07;;;;;;;18.85;8.32;;;;;;;11.81;39.68;100139.84;4229536;33;34183;-77
2022/03/27 00:03:35;;;;;;;17.45;8.80;;;;;;;12.02;39.39;100133.69;4216396;33;33842;-77
2022/03/27 00:06:03;;;;;;;18.80;8.93;;;;;;;12.10;39.30;100126.72;4219015;34;33979;-77
2022/03/27 00:08:31;;;;;;;17.52;8.15;;;;;;;12.20;39.13;100130.16;4217055;33;35997;-77
2022/03/27 00:13:46;;;;;;;29.55;9.30;;;;;;;12.00;39.53;100133.72;4215689;33;33569;-77
2022/03/27 00:16:14;;;;;;;16.67;8.48;;;;;;;12.11;39.41;100128.47;4218991;34;34034;-77
2022/03/27 00:18:42;;;;;;;16.27;8.18;;;;;;;12.08;39.54;100128.47;4218151;34;36171;-77
2022/03/27 00:21:10;;;;;;;23.85;8.63;;;;;;;11.63;40.74;100131.19;4218030;33;34901;-77
2022/03/27 00:23:39;;;;;;;15.85;7.97;;;;;;;11.78;40.26;100127.66;4216968;34;33599;-77
2022/03/27 00:26:07;;;;;;;16.50;7.65;;;;;;;11.78;40.40;100130.28;4216943;33;33922;-77
2022/03/27 00:28:35;;;;;;;30.05;8.13;;;;;;;11.61;40.78;100129.44;4227362;33;34934;-77
2022/03/27 00:31:05;;;;;;;21.73;9.05;;;;;;;11.58;40.84;100128.59;4229017;33;34503;-77
2022/03/27 00:33:35;;;;;;;22.62;8.20;;;;;;;12.03;40.00;100130.22;4217082;34;32788;-77
2022/03/27 00:36:04;;;;;;;19.87;7.57;;;;;;;12.36;39.29;100136.19;4217575;34;33946;-77
2022/03/27 00:38:32;;;;;;;20.35;8.50;;;;;;;11.63;40.55;100135.53;4217866;34;35215;-77
2022/03/27 00:41:01;;;;;;;14.87;6.72;;;;;;;12.21;39.30;100135.37;4218615;34;35275;-76
2022/03/27 00:43:29;;;;;;;19.42;8.45;;;;;;;12.13;39.43;100129.31;4217881;34;34641;-76
2022/03/27 00:45:57;;;;;;;17.98;7.95;;;;;;;12.15;39.33;100135.41;4218496;34;33899;-77
2022/03/27 00:48:25;;;;;;;15.95;7.28;;;;;;;12.46;38.62;100136.13;4217796;34;35111;-77
2022/03/27 00:50:54;;;;;;;18.90;8.25;;;;;;;11.73;40.24;100139.84;4219044;34;35127;-77
2022/03/27 00:53:22;;;;;;;15.77;7.55;;;;;;;11.49;40.84;100139.06;4218438;34;32828;-77
2022/03/27 00:55:49;;;;;;;20.05;8.07;;;;;;;12.09;39.56;100138.91;4219636;34;34847;-76
2022/03/27 00:58:18;;;;;;;18.52;8.32;;;;;;;11.99;39.73;100136.34;4217553;34;34697;-77
2022/03/27 01:01:09;;;;;;;17.12;7.97;;;;;;;11.70;40.15;100142.47;4207844;34;33845;-77
2022/03/27 01:03:38;;;;;;;18.95;8.55;;;;;;;12.41;38.93;100147.47;4216055;34;34313;-77
2022/03/27 01:06:18;;;;;;;17.30;7.93;;;;;;;12.07;39.45;100137.16;4219061;34;33259;-77
2022/03/27 01:11:32;;;;;;;16.48;7.43;;;;;;;11.86;39.90;100136.34;4219821;33;35147;-77
2022/03/27 01:14:01;;;;;;;18.87;8.15;;;;;;;11.99;39.76;100136.34;4216887;33;34546;-76
2022/03/27 01:16:37;;;;;;;18.60;8.43;;;;;;;11.62;40.57;100139.88;4219371;34;34809;-77
2022/03/27 01:19:09;;;;;;;19.48;8.13;;;;;;;11.73;40.57;100145.06;4219235;33;35026;-77
2022/03/27 01:21:45;;;;;;;15.70;7.78;;;;;;;12.07;39.96;100145.87;4220575;34;34437;-76
2022/03/27 01:24:16;;;;;;;17.33;7.95;;;;;;;11.87;40.36;100145.91;4227179;33;34472;-77
2022/03/27 01:26:44;;;;;;;18.08;7.78;;;;;;;11.81;40.33;100143.31;4227993;33;33908;-77
2022/03/27 01:29:12;;;;;;;13.62;6.45;;;;;;;11.97;39.97;100143.31;4215303;33;35029;-77
2022/03/27 01:31:40;;;;;;;22.50;7.87;;;;;;;12.09;39.65;100145.87;4230574;33;35303;-77
2022/03/27 01:34:08;;;;;;;17.48;7.80;;;;;;;12.18;39.29;100145.84;4217363;33;33935;-77
2022/03/27 01:36:36;;;;;;;17.55;7.80;;;;;;;11.76;40.22;100152.91;4194122;34;34803;-77
2022/03/27 01:39:07;;;;;;;21.10;8.55;;;;;;;11.72;40.33;100145.97;4208353;33;164389;-77
2022/03/27 01:41:35;;;;;;;22.00;8.73;;;;;;;11.50;40.92;100148.59;4219487;34;34567;-77
2022/03/27 01:44:05;;;;;;;16.55;8.02;;;;;;;11.74;40.36;100154.66;4219280;33;34529;-77
2022/03/27 01:46:35;;;;;;;17.20;8.48;;;;;;;11.60;40.62;100152.06;4220048;34;33287;-77
2022/03/27 01:49:05;;;;;;;17.42;8.13;;;;;;;11.19;41.61;100156.47;4219319;33;34177;-77
2022/03/27 01:51:34;;;;;;;23.27;8.50;;;;;;;11.19;41.30;100159.06;4219951;34;34408;-77
2022/03/27 01:54:03;;;;;;;15.95;7.57;;;;;;;10.62;42.29;100159.00;4218367;33;33710;-77
2022/03/27 01:56:31;;;;;;;23.95;8.30;;;;;;;10.13;43.21;100166.63;4219978;34;33968;-77
2022/03/27 01:59:00;;;;;;;18.10;7.82;;;;;;;10.10;43.34;100164.00;4218994;33;35019;-77
2022/03/27 02:01:28;;;;;;;18.00;8.25;;;;;;;10.38;43.08;100165.00;4218787;34;34336;-77
2022/03/27 02:03:56;;;;;;;23.10;8.70;;;;;;;10.23;42.82;100172.72;4218670;33;33837;-77
2022/03/27 02:06:24;;;;;;;23.52;8.68;;;;;;;10.04;43.59;100164.84;4219888;34;33918;-77
2022/03/27 02:08:52;;;;;;;17.27;8.25;;;;;;;9.88;44.16;100165.63;4218217;33;34674;-77
2022/03/27 02:11:20;;;;;;;19.83;9.23;;;;;;;10.14;43.55;100164.88;4216846;33;34474;-78
2022/03/27 02:13:48;;;;;;;18.42;9.02;;;;;;;10.06;43.84;100170.94;4218159;33;33859;-76
2022/03/27 02:16:16;;;;;;;23.17;9.07;;;;;;;9.82;44.24;100176.00;4219879;34;33924;-77
2022/03/27 02:18:45;;;;;;;22.35;9.27;;;;;;;9.98;43.98;100170.00;4218889;33;35187;-77
2022/03/27 02:21:13;;;;;;;18.70;8.27;;;;;;;9.56;45.14;100171.50;4219620;34;35112;-77
2022/03/27 02:23:42;;;;;;;16.40;8.68;;;;;;;9.65;45.14;100170.69;4228680;33;34402;-77
2022/03/27 02:26:10;;;;;;;19.90;8.93;;;;;;;9.77;45.15;100175.09;4219723;34;34730;-77
2022/03/27 02:28:39;;;;;;;21.27;8.32;;;;;;;9.86;44.97;100185.56;4218068;34;34856;-77
2022/03/27 02:31:08;;;;;;;25.42;9.45;;;;;;;9.80;45.25;100182.94;4217798;33;34646;-77
2022/03/27 02:33:37;;;;;;;16.55;7.97;;;;;;;9.55;45.77;100180.16;4218942;33;33587;-77
2022/03/27 02:36:08;;;;;;;17.42;8.77;;;;;;;9.89;45.11;100184.72;4219676;34;34855;-76
2022/03/27 02:38:36;;;;;;;17.87;7.82;;;;;;;9.88;44.95;100183.81;4218905;34;35176;-77
2022/03/27 02:41:04;;;;;;;17.30;8.82;;;;;;;9.88;45.00;100189.03;4215313;34;32942;-76
2022/03/27 02:43:33;;;;;;;21.50;10.02;;;;;;;10.40;44.50;100180.66;4208322;33;33720;-77
2022/03/27 02:46:01;;;;;;;21.48;10.15;;;;;;;10.49;45.17;100183.28;4218520;34;34733;-77
2022/03/27 02:48:29;;;;;;;20.67;8.77;;;;;;;10.49;45.21;100183.28;4216836;33;35174;-77
2022/03/27 02:50:57;;;;;;;26.10;8.80;;;;;;;10.53;45.55;100191.97;4217754;33;34522;-77
2022/03/27 02:53:25;;;;;;;19.40;7.65;;;;;;;10.44;45.72;100196.25;4195197;34;33825;-77
2022/03/27 02:55:53;;;;;;;22.25;9.02;;;;;;;10.73;45.14;100198.09;4218797;33;34032;-77
2022/03/27 02:58:26;;;;;;;20.25;9.18;;;;;;;11.11;44.31;100194.69;4217839;33;35869;-77
2022/03/27 03:00:54;;;;;;;25.15;9.77;;;;;;;11.22;43.54;100196.44;4219609;34;34386;-77
2022/03/27 03:03:22;;;;;;;23.42;8.88;;;;;;;11.64;42.53;100192.06;4205238;34;34013;-76
2022/03/27 03:05:51;;;;;;;19.40;8.80;;;;;;;11.32;43.42;100192.94;4217750;33;34148;-77
2022/03/27 03:08:19;;;;;;;19.23;8.95;;;;;;;11.10;43.82;100192.94;4228028;33;35035;-77
2022/03/27 03:10:47;;;;;;;22.30;9.55;;;;;;;11.61;42.40;100200.75;4229856;33;35345;-77
2022/03/27 03:13:15;;;;;;;16.55;8.07;;;;;;;11.06;43.78;100192.94;4218637;34;33815;-78
2022/03/27 03:15:44;;;;;;;21.20;8.90;;;;;;;11.46;43.07;100208.59;4228582;33;34091;-77
2022/03/27 03:18:12;;;;;;;25.95;9.57;;;;;;;11.37;42.90;100206.87;4218953;33;35012;-77
2022/03/27 03:20:40;;;;;;;20.00;9.18;;;;;;;11.25;43.28;100209.47;4219055;34;34360;-77
2022/03/27 03:23:09;;;;;;;20.73;8.98;;;;;;;11.38;43.33;100211.19;4218424;34;33705;-77
2022/03/27 03:25:39;;;;;;;24.87;9.65;;;;;;;11.53;42.71;100213.81;4193707;34;32979;-77
2022/03/27 03:28:27;;;;;;;21.25;8.63;;;;;;;10.96;44.24;100225.94;4205397;33;36028;-77
2022/03/27 03:30:55;;;;;;;16.77;9.13;;;;;;;11.31;43.66;100225.09;4218213;34;33696;-76
2022/03/27 03:33:23;;;;;;;21.23;8.80;;;;;;;11.23;43.60;100234.69;4217632;33;34524;-79
2022/03/27 03:35:51;;;;;;;23.83;9.32;;;;;;;11.35;43.57;100225.12;4217879;34;34927;-77
2022/03/27 03:38:19;;;;;;;21.23;9.35;;;;;;;11.90;41.81;100220.72;4217524;33;35902;-78
2022/03/27 03:40:47;;;;;;;18.40;8.70;;;;;;;11.69;42.34;100232.91;4205588;34;35284;-77
2022/03/27 03:43:15;;;;;;;20.58;9.23;;;;;;;11.75;42.33;100240.75;4207197;33;33675;-78
2022/03/27 03:45:43;;;;;;;19.40;8.30;;;;;;;11.79;42.26;100236.41;4218867;34;34954;-77
2022/03/27 03:48:11;;;;;;;19.60;10.52;;;;;;;11.98;42.08;100239.00;4218911;34;35055;-77
2022/03/27 03:50:39;;;;;;;22.33;9.40;;;;;;;11.26;43.39;100237.25;4218381;34;35215;-77
2022/03/27 03:53:07;;;;;;;18.95;8.80;;;;;;;10.95;44.34;100242.44;4219127;34;34605;-77
2022/03/27 03:55:36;;;;;;;18.60;9.25;;;;;;;11.04;44.11;100245.06;4217258;34;33842;-77
2022/03/27 03:58:04;;;;;;;19.12;8.90;;;;;;;10.91;44.29;100252.00;4215151;33;34989;-77
2022/03/27 04:00:32;;;;;;;21.23;8.40;;;;;;;11.56;42.63;100252.94;4216267;33;34309;-76
2022/03/27 04:03:00;;;;;;;16.90;9.57;;;;;;;11.51;42.68;100259.88;4219077;34;34564;-76
2022/03/27 04:05:28;;;;;;;17.17;9.25;;;;;;;11.63;42.17;100265.97;4216918;33;32691;-76
2022/03/27 04:07:56;;;;;;;26.52;10.40;;;;;;;11.02;43.42;100272.84;4218717;34;35976;-76
2022/03/27 04:10:24;;;;;;;22.48;8.95;;;;;;;10.83;43.88;100269.31;4218069;33;34213;-74
2022/03/27 04:12:52;;;;;;;19.27;9.52;;;;;;;11.19;43.13;100271.16;4218786;34;33701;-74
2022/03/27 04:15:20;;;;;;;19.00;9.70;;;;;;;10.84;44.03;100278.03;4221939;33;34890;-76
2022/03/27 04:18:01;;;;;;;16.90;8.65;;;;;;;10.99;44.25;100273.72;4217947;33;35216;-74
2022/03/27 04:20:29;;;;;;;24.45;9.98;;;;;;;11.20;43.56;100272.88;4217853;33;34457;-75
2022/03/27 04:22:57;;;;;;;20.23;9.20;;;;;;;10.88;44.17;100279.78;4218876;34;34674;-74
2022/03/27 04:25:25;;;;;;;22.48;9.30;;;;;;;10.76;44.77;100286.66;4225457;33;34691;-75
2022/03/27 04:27:53;;;;;;;20.73;9.43;;;;;;;10.56;45.02;100296.16;4204906;34;34679;-75
2022/03/27 04:30:21;;;;;;;20.88;9.63;;;;;;;10.53;45.49;100296.12;4215297;33;34570;-75
2022/03/27 04:32:50;;;;;;;20.67;8.63;;;;;;;10.89;44.77;100299.72;4218698;34;33831;-75
2022/03/27 04:35:18;;;;;;;24.45;10.60;;;;;;;10.80;45.04;100311.87;4216625;34;34788;-76
2022/03/27 04:37:47;;;;;;;19.90;9.68;;;;;;;10.60;45.48;100319.59;4217747;34;35157;-75
2022/03/27 04:40:16;;;;;;;21.42;9.68;;;;;;;10.55;45.83;100323.03;4217741;34;35175;-75
2022/03/27 04:42:44;;;;;;;18.35;9.55;;;;;;;10.79;45.47;100323.16;4217490;34;33425;-74
2022/03/27 04:45:12;;;;;;;20.12;9.98;;;;;;;11.20;44.90;100332.84;4228213;33;33096;-75
2022/03/27 04:47:40;;;;;;;30.80;11.95;;;;;;;10.34;46.87;100337.69;4205938;34;34442;-75
2022/03/27 04:50:08;;;;;;;23.42;9.93;;;;;;;10.95;45.62;100338.84;4216313;33;35345;-75
2022/03/27 04:52:37;;;;;;;22.35;10.23;;;;;;;10.74;46.13;100348.31;4218414;34;33655;-75
2022/03/27 04:55:07;;;;;;;20.02;9.43;;;;;;;10.89;46.31;100350.13;4214852;34;34887;-75
2022/03/27 04:57:37;;;;;;;22.13;9.65;;;;;;;11.10;45.97;100344.12;4218210;34;34931;-77
2022/03/27 05:00:14;;;;;;;19.75;10.10;;;;;;;11.13;45.89;100349.34;4217316;34;35293;-77
2022/03/27 05:02:43;;;;;;;21.65;9.85;;;;;;;11.17;45.97;100343.28;4206327;34;33669;-77
2022/03/27 05:05:12;;;;;;;18.77;9.10;;;;;;;10.86;46.66;100354.47;4216149;34;33881;-77
2022/03/27 05:07:40;;;;;;;19.83;10.05;;;;;;;11.41;45.60;100356.38;4216872;34;35905;-77
2022/03/27 05:10:10;;;;;;;21.15;9.70;;;;;;;11.10;46.47;100364.09;4216050;33;34524;-77
2022/03/27 05:12:38;;;;;;;18.17;9.05;;;;;;;11.36;46.03;100365.06;4213394;34;33809;-77
2022/03/27 05:15:09;;;;;;;23.27;9.38;;;;;;;11.21;46.55;100367.62;4216216;34;34112;-77
2022/03/27 05:17:47;;;;;;;18.87;9.93;;;;;;;11.24;46.34;100371.97;4216999;34;36021;-77
2022/03/27 05:20:15;;;;;;;21.00;9.93;;;;;;;11.62;45.79;100368.59;4217120;34;34542;-78
2022/03/27 05:22:43;;;;;;;24.10;9.57;;;;;;;11.62;45.99;100358.16;4216838;34;33910;-78
2022/03/27 05:25:12;;;;;;;20.58;9.85;;;;;;;11.63;46.18;100360.78;4217382;34;33944;-78
2022/03/27 05:27:48;;;;;;;15.80;8.93;;;;;;;12.33;44.99;100362.53;4217794;34;35196;-77
2022/03/27 05:30:17;;;;;;;20.73;9.57;;;;;;;13.01;42.64;100371.94;4217038;34;34664;-77
2022/03/27 05:32:45;;;;;;;20.00;9.50;;;;;;;12.96;42.50;100382.41;4217016;34;33761;-78
2022/03/27 05:35:14;;;;;;;19.00;8.77;;;;;;;11.97;44.40;100375.63;4217087;34;33921;-78
2022/03/27 05:37:44;;;;;;;23.27;9.05;;;;;;;11.79;45.27;100382.53;4218194;34;35187;-78
2022/03/27 05:40:17;;;;;;;20.90;9.60;;;;;;;12.49;43.97;100391.22;4218861;33;34298;-78
2022/03/27 05:42:49;;;;;;;20.35;9.40;;;;;;;11.73;45.07;100404.25;4218668;34;34618;-78
2022/03/27 05:45:18;;;;;;;21.08;10.43;;;;;;;12.20;43.85;100413.03;4217903;33;33998;-79
2022/03/27 05:47:47;;;;;;;21.40;10.35;;;;;;;12.92;41.80;100406.81;4230054;33;35045;-78
2022/03/27 05:50:18;;;;;;;23.23;10.35;;;;;;;13.42;40.99;100397.91;4217863;34;34174;-78
2022/03/27 05:52:47;;;;;;;23.77;8.27;;;;;;;14.61;38.47;100402.25;4218834;34;33734;-78
2022/03/27 05:55:15;;;;;;;20.50;8.48;;;;;;;13.81;39.09;100406.37;4217883;33;34462;-78
2022/03/27 05:57:43;;;;;;;19.12;8.43;;;;;;;14.17;39.42;100419.22;4220179;34;35830;-78
2022/03/27 06:00:13;;;;;;;16.25;7.87;;;;;;;13.67;40.18;100418.69;4224013;33;35121;-78
2022/03/27 06:02:43;;;;;;;13.90;7.18;;;;;;;14.48;38.74;100429.44;4218799;34;34017;-78
2022/03/27 06:05:11;;;;;;;13.95;6.90;;;;;;;14.10;39.15;100431.50;4219073;34;34842;-78
2022/03/27 06:07:46;;;;;;;12.68;6.47;;;;;;;13.79;40.66;100439.56;4216896;33;35910;-78
2022/03/27 06:10:16;;;;;;;16.30;8.13;;;;;;;13.52;40.99;100437.09;4218913;33;34488;-78
2022/03/27 06:12:44;;;;;;;13.18;6.35;;;;;;;13.93;40.32;100446.47;4218822;34;33405;-78
2022/03/27 06:15:12;;;;;;;14.95;6.30;;;;;;;14.11;40.08;100451.56;4217791;34;33884;-77
2022/03/27 06:17:45;;;;;;;14.13;6.62;;;;;;;14.40;39.63;100458.34;4229824;33;35123;-78
2022/03/27 06:20:16;;;;;;;12.68;6.57;;;;;;;14.56;39.49;100467.81;4216171;34;34588;-78
2022/03/27 06:22:44;;;;;;;15.07;6.65;;;;;;;14.13;40.29;100460.28;4218495;34;33663;-78
2022/03/27 06:25:20;;;;;;;9.95;5.82;;;;;;;14.86;38.90;100457.94;4216883;33;34940;-78
2022/03/27 06:27:49;;;;;;;11.77;6.57;;;;;;;14.76;38.99;100462.41;4215804;34;35173;-78
2022/03/27 06:30:19;;;;;;;14.05;6.45;;;;;;;15.02;38.61;100463.00;4212153;34;34515;-80
2022/03/27 06:32:48;;;;;;;14.98;6.37;;;;;;;15.66;37.33;100462.22;4218611;34;34596;-78
2022/03/27 06:35:16;;;;;;;10.48;6.40;;;;;;;15.37;37.37;100462.62;4218810;33;34896;-77
2022/03/27 06:37:45;;;;;;;14.48;6.45;;;;;;;14.94;38.81;100460.47;4218588;34;35005;-78
2022/03/27 06:40:14;;;;;;;14.00;7.05;;;;;;;15.54;37.28;100467.63;4218869;33;34547;-79
2022/03/27 06:42:44;;;;;;;14.00;6.28;;;;;;;15.86;36.81;100467.22;4218628;34;33702;-78
2022/03/27 06:45:13;;;;;;;12.10;6.12;;;;;;;15.22;38.65;100476.78;4218146;33;33946;-78
2022/03/27 06:47:44;;;;;;;8.38;5.22;;;;;;;16.22;36.32;100477.22;4230109;33;34957;-80
2022/03/27 06:50:13;;;;;;;11.43;5.60;;;;;;;16.24;36.50;100476.28;4218541;33;35017;-78
2022/03/27 06:52:43;;;;;;;10.48;5.07;;;;;;;16.14;36.23;100473.84;4219738;34;34762;-79
2022/03/27 06:55:11;;;;;;;11.85;5.80;;;;;;;15.97;36.90;100466.19;4217586;34;34394;-79
2022/03/27 06:57:39;;;;;;;12.50;5.70;;;;;;;15.57;37.77;100474.63;4217635;33;35109;-78
2022/03/27 07:03:03;;;;;;;12.30;6.03;;;;;;;15.77;36.98;100484.87;4218895;33;34627;-78
2022/03/27 07:05:37;;;;;;;23.15;6.55;;;;;;;15.67;37.01;100479.72;4228484;33;34837;-76
2022/03/27 07:08:06;;;;;;;14.57;6.43;;;;;;;15.21;37.68;100488.16;4218475;34;35770;-77
2022/03/27 07:10:36;;;;;;;13.57;6.85;;;;;;;15.22;38.57;100492.50;4218725;33;35129;-76
2022/03/27 07:13:07;;;;;;;10.95;5.70;;;;;;;14.44;39.57;100495.88;4219609;34;33613;-77
2022/03/27 07:15:36;;;;;;;11.68;6.35;;;;;;;16.08;37.27;100487.94;4217906;33;34947;-76
2022/03/27 07:18:05;;;;;;;13.32;6.57;;;;;;;15.97;36.86;100497.72;4217580;34;35215;-77
2022/03/27 07:20:36;;;;;;;11.32;6.10;;;;;;;15.33;38.16;100492.38;4224228;33;34658;-76
2022/03/27 07:23:05;;;;;;;11.07;6.20;;;;;;;15.78;37.24;100486.62;4218432;34;33417;-77
2022/03/27 07:25:35;;;;;;;11.05;5.97;;;;;;;16.74;35.73;100481.59;4217793;33;33777;-79
2022/03/27 07:28:04;;;;;;;11.18;5.25;;;;;;;16.60;35.77;100488.84;4218331;34;34250;-78
2022/03/27 07:30:33;;;;;;;13.57;5.93;;;;;;;16.75;35.52;100485.97;4216991;33;35293;-79
2022/03/27 07:33:01;;;;;;;12.07;5.72;;;;;;;16.87;35.51;100492.78;4216977;34;33765;-79
2022/03/27 07:35:30;;;;;;;14.00;6.28;;;;;;;16.43;36.28;100497.00;4217564;34;33917;-79
2022/03/27 07:37:58;;;;;;;12.75;5.97;;;;;;;16.93;35.89;100499.72;4218408;34;34928;-79
2022/03/27 07:40:27;;;;;;;11.52;5.80;;;;;;;16.17;36.79;100495.69;4218591;33;34481;-79
2022/03/27 07:42:56;;;;;;;9.90;5.15;;;;;;;17.32;35.12;100503.34;4218142;34;33725;-79
2022/03/27 07:45:26;;;;;;;14.82;6.15;;;;;;;16.85;35.66;100506.00;4218491;33;34857;-79
2022/03/27 07:47:55;;;;;;;12.57;6.30;;;;;;;17.21;34.94;100506.19;4219278;34;35316;-79
2022/03/27 07:50:25;;;;;;;10.60;5.75;;;;;;;17.25;34.91;100505.22;4217222;34;34385;-79
2022/03/27 07:52:53;;;;;;;9.32;5.28;;;;;;;17.16;35.52;100510.66;4218219;34;33580;-79
2022/03/27 07:55:21;;;;;;;9.25;5.03;;;;;;;17.93;34.33;100506.50;4216412;33;32132;-79
2022/03/27 07:57:55;;;;;;;11.45;5.68;;;;;;;18.08;35.41;100512.31;4218024;34;34185;-79
2022/03/27 08:00:24;;;;;;;11.30;6.00;;;;;;;17.21;35.81;100508.81;4216329;34;35354;-79
2022/03/27 08:02:52;;;;;;;10.77;5.30;;;;;;;18.19;35.09;100515.56;4218093;34;33710;-79
2022/03/27 08:05:24;;;;;;;10.15;5.30;;;;;;;19.13;32.11;100514.09;4218333;33;33984;-79
2022/03/27 08:07:52;;;;;;;11.93;5.45;;;;;;;18.68;33.37;100524.91;4218130;34;34253;-80
2022/03/27 08:10:20;;;;;;;13.13;6.12;;;;;;;19.16;32.55;100513.16;4216870;33;35302;-81
2022/03/27 08:12:48;;;;;;;10.85;5.53;;;;;;;19.13;32.31;100522.03;4217291;34;33571;-80
2022/03/27 08:15:17;;;;;;;11.63;5.65;;;;;;;19.11;32.66;100512.41;4218106;33;34080;-79
2022/03/27 08:17:53;;;;;;;13.27;5.65;;;;;;;19.05;32.45;100504.66;4216346;33;36008;-79
2022/03/27 08:20:23;;;;;;;10.18;5.57;;;;;;;18.82;32.90;100510.56;4218085;33;34395;-79
2022/03/27 08:22:51;;;;;;;13.25;6.25;;;;;;;18.67;32.78;100501.22;4219031;34;33716;-79
2022/03/27 08:28:07;;;;;;;14.13;6.47;;;;;;;18.21;34.68;100492.66;4217176;34;35509;-79
2022/03/27 08:30:35;;;;;;;12.13;6.37;;;;;;;17.81;34.90;100499.69;4214391;34;34229;-78
2022/03/27 08:33:04;;;;;;;11.77;5.00;;;;;;;18.06;34.76;100503.59;4205045;34;34526;-79
2022/03/27 08:35:32;;;;;;;12.37;6.85;;;;;;;18.83;33.42;100501.72;4216642;34;34877;-79
2022/03/27 08:38:00;;;;;;;12.43;5.97;;;;;;;17.90;34.75;100497.78;4218778;34;34732;-79
2022/03/27 08:40:28;;;;;;;11.40;6.03;;;;;;;18.48;33.46;100506.97;4217889;34;35337;-79
2022/03/27 08:42:56;;;;;;;11.95;6.40;;;;;;;18.38;33.90;100501.03;4225833;33;34013;-79
2022/03/27 08:45:24;;;;;;;12.90;6.10;;;;;;;18.71;33.86;100508.16;4227531;33;34078;-79
2022/03/27 08:47:52;;;;;;;13.10;6.55;;;;;;;19.16;32.87;100504.38;4218702;34;35902;-79
2022/03/27 08:50:34;;;;;;;8.85;5.62;;;;;;;19.72;31.66;100504.50;4216581;34;34572;-78
2022/03/27 08:53:05;;;;;;;10.02;5.95;;;;;;;19.10;34.06;100516.81;4206217;34;33634;-79
2022/03/27 08:55:39;;;;;;;9.95;5.35;;;;;;;19.39;33.00;100522.22;4225816;33;33179;-78
2022/03/27 08:58:09;;;;;;;11.48;6.00;;;;;;;19.35;32.39;100523.22;4211903;34;35806;-78
2022/03/27 09:00:38;;;;;;;12.35;5.72;;;;;;;19.23;32.66;100516.50;4215722;33;34340;-79
2022/03/27 09:03:07;;;;;;;14.50;5.80;;;;;;;19.76;32.42;100508.81;4217326;34;33562;-79
2022/03/27 09:05:39;;;;;;;11.43;6.10;;;;;;;19.50;32.36;100510.44;4215398;33;34021;-79
2022/03/27 09:08:12;;;;;;;12.82;5.90;;;;;;;20.48;30.89;100518.91;4216763;34;34827;-78
2022/03/27 09:10:40;;;;;;;15.35;5.90;;;;;;;20.09;31.04;100519.28;4217469;34;34570;-79
2022/03/27 09:13:16;;;;;;;10.73;5.53;;;;;;;20.09;31.19;100519.28;4220039;34;34596;-79
2022/03/27 09:15:45;;;;;;;13.82;6.22;;;;;;;20.17;30.64;100522.56;4217142;33;33940;-81
2022/03/27 09:18:15;;;;;;;17.48;5.87;;;;;;;18.80;33.55;100517.63;4212741;34;35128;-81
2022/03/27 09:20:42;;;;;;;15.25;5.90;;;;;;;18.46;33.80;100516.69;4207430;34;33654;-81
2022/03/27 09:23:21;;;;;;;11.98;6.30;;;;;;;19.13;32.79;100524.66;4228594;33;34664;-81
2022/03/27 09:26:17;;;;;;;11.30;5.82;;;;;;;19.50;32.17;100525.41;4206557;34;33952;-82
2022/03/27 09:28:48;;;;;;;10.48;5.12;;;;;;;20.30;31.44;100516.88;4205217;34;35031;-81
2022/03/27 09:31:23;;;;;;;11.30;5.25;;;;;;;20.34;30.51;100516.72;4227345;33;35370;-78
2022/03/27 09:34:01;;;;;;;10.70;5.25;;;;;;;19.31;31.87;100527.72;4220175;34;34573;-79
2022/03/27 09:36:32;;;;;;;12.50;5.95;;;;;;;20.22;31.27;100515.34;4218596;33;34727;-78
2022/03/27 09:39:00;;;;;;;11.10;5.53;;;;;;;20.06;30.74;100514.94;4206144;34;35184;-78
2022/03/27 09:41:35;;;;;;;10.60;5.72;;;;;;;20.25;31.14;100512.59;4219258;34;34335;-79
2022/03/27 09:44:11;;;;;;;11.88;6.03;;;;;;;20.47;29.51;100517.19;4219001;34;33705;-78
2022/03/27 09:46:55;;;;;;;10.00;5.68;;;;;;;20.08;30.60;100513.12;4218598;33;34880;-78
2022/03/27 09:49:30;;;;;;;11.82;6.28;;;;;;;20.01;30.45;100500.12;4218853;34;35094;-80
2022/03/27 09:52:00;;;;;;;10.70;5.80;;;;;;;20.86;29.09;100506.22;4219100;34;35311;-79
2022/03/27 09:54:29;;;;;;;12.37;5.60;;;;;;;19.98;30.98;100508.19;4217158;33;34540;-79
2022/03/27 09:56:57;;;;;;;10.10;5.05;;;;;;;20.05;31.47;100513.22;4218062;33;33779;-79
2022/03/27 09:59:30;;;;;;;10.75;5.35;;;;;;;21.59;28.08;100501.84;4219955;34;35842;-79
2022/03/27 10:02:38;;;;;;;10.20;5.25;;;;;;;21.04;29.43;100514.44;4206653;34;34433;-78
2022/03/27 10:05:11;;;;;;;16.25;6.30;;;;;;;19.82;30.30;100505.16;4203809;34;34458;-79
2022/03/27 10:07:53;;;;;;;13.52;5.72;;;;;;;20.95;29.58;100502.38;4203808;34;34760;-79
2022/03/27 10:10:23;;;;;;;8.73;5.47;;;;;;;20.58;29.26;100507.13;4189023;34;35982;-82
2022/03/27 10:12:53;;;;;;;28.67;5.87;;;;;;;21.49;27.81;100506.62;4207119;34;33453;-80
2022/03/27 10:15:28;;;;;;;9.60;6.10;;;;;;;19.93;30.01;100505.69;4219241;33;33517;-79
2022/03/27 10:18:10;;;;;;;13.62;6.15;;;;;;;20.77;28.79;100506.50;4218818;34;33865;-79
2022/03/27 10:20:38;;;;;;;11.85;5.80;;;;;;;22.01;27.26;100510.88;4217599;34;35065;-79
2022/03/27 10:23:33;;;;;;;12.68;5.85;;;;;;;21.39;28.91;100500.78;4219474;34;34617;-79
2022/03/27 10:26:03;;;;;;;11.93;5.70;;;;;;;21.40;27.93;100491.88;4217570;33;33314;-79
2022/03/27 10:28:37;;;;;;;14.82;6.20;;;;;;;21.82;27.87;100505.41;4218973;33;34123;-79
2022/03/27 10:31:06;;;;;;;10.52;6.32;;;;;;;21.88;26.63;100499.84;4218816;33;35086;-79
2022/03/27 10:33:35;;;;;;;13.35;6.18;;;;;;;21.21;27.24;100494.37;4219933;34;35283;-78
2022/03/27 10:36:12;;;;;;;8.93;5.28;;;;;;;20.62;29.51;100498.19;4217850;33;33833;-78
2022/03/27 10:39:16;;;;;;;12.13;6.72;;;;;;;20.90;28.64;100494.59;4218710;34;34780;-78
2022/03/27 10:41:57;;;;;;;11.60;6.47;;;;;;;21.18;28.28;100488.31;4217778;33;35916;-79
2022/03/27 10:44:37;;;;;;;21.45;7.53;;;;;;;21.65;28.38;100496.31;4219760;34;35392;-79
2022/03/27 10:47:18;;;;;;;11.82;5.87;;;;;;;21.53;27.96;100500.31;4217831;34;33528;-78
2022/03/27 10:50:01;;;;;;;11.07;5.78;;;;;;;22.51;26.07;100494.69;4219827;34;34858;-78
2022/03/27 10:52:37;;;;;;;15.40;6.43;;;;;;;22.30;26.42;100493.81;4218958;34;35049;-79
2022/03/27 10:55:11;;;;;;;12.80;6.50;;;;;;;23.42;26.70;100498.78;4219715;34;34333;-79
2022/03/27 10:57:41;;;;;;;13.93;6.12;;;;;;;23.26;25.02;100502.13;4205571;34;33629;-79
2022/03/27 11:00:10;;;;;;;15.13;7.53;;;;;;;23.53;24.57;100493.81;4219953;34;33789;-79
2022/03/27 11:02:45;;;;;;;11.60;6.25;;;;;;;23.79;23.54;100484.63;4205644;34;32886;-79
2022/03/27 11:05:35;;;;;;;12.55;6.60;;;;;;;23.53;25.38;100475.19;4218798;33;34403;-79
2022/03/27 11:08:15;;;;;;;12.85;6.82;;;;;;;24.23;24.22;100478.13;4204617;34;33078;-80
2022/03/27 11:10:51;;;;;;;11.55;6.40;;;;;;;23.43;24.60;100471.22;4228734;33;33967;-79
2022/03/27 11:13:25;;;;;;;11.10;6.47;;;;;;;23.79;24.01;100473.97;4219516;34;35040;-77
2022/03/27 11:16:02;;;;;;;10.68;6.78;;;;;;;24.21;23.42;100483.53;4218606;34;35292;-80
2022/03/27 11:18:41;;;;;;;12.48;6.50;;;;;;;24.52;23.52;100473.12;4217371;34;33710;-78
2022/03/27 11:21:11;;;;;;;11.68;6.15;;;;;;;25.50;22.11;100475.13;4204293;33;34826;-78
2022/03/27 11:23:41;;;;;;;13.30;7.00;;;;;;;24.01;24.62;100468.50;4215935;33;35646;-77
2022/03/27 11:26:21;;;;;;;15.95;6.90;;;;;;;24.59;22.83;100479.91;4217517;34;34323;-79
2022/03/27 11:28:54;;;;;;;11.60;5.80;;;;;;;23.83;24.05;100469.41;4218222;34;33969;-78
2022/03/27 11:31:25;;;;;;;11.02;6.35;;;;;;;23.98;24.10;100468.69;4219349;33;34859;-78
2022/03/27 11:34:09;;;;;;;13.98;6.47;;;;;;;24.89;22.44;100479.25;4216973;34;36194;-78
2022/03/27 11:36:38;;;;;;;12.37;6.80;;;;;;;23.07;25.06;100470.19;4216159;34;32900;-77
2022/03/27 11:39:13;;;;;;;15.55;6.72;;;;;;;23.90;23.87;100465.50;4207223;34;33988;-78
2022/03/27 11:41:46;;;;;;;12.02;6.72;;;;;;;24.95;22.49;100460.28;4216462;33;32994;-77
2022/03/27 11:44:17;;;;;;;12.35;6.43;;;;;;;24.37;23.25;100453.44;4218067;34;35100;-78